Terminal Aerodrome Forecast
Issued by NWS

Home | Current Version | Previous Version | Text Only | Print | Product List | Glossary Off
Versions: 1 2 3 4 5 6 7 8 9 10 11 12

000
FTUS43 KICT 191123 AAC
TAFSLN
TAF AMD
KSLN 191123Z 1911/2006 18011KT P6SM VCTS SCT100CB BKN200
      TEMPO 1912/1914 -TSRA BKN070CB
     FM191700 19015G23KT P6SM SKC
     FM200100 17011KT P6SM SKC=

USA.gov is the U.S. government's official web portal to all federal, state and local government web resources and services.